createdAt,value
2022-11-01T00:02:58.900Z,84.70
2022-11-01T00:06:00.549Z,84.80
2022-11-01T00:09:03.143Z,85.70
2022-11-01T00:12:05.125Z,85.20
2022-11-01T00:15:06.922Z,85.10
2022-11-01T00:18:08.539Z,85.10
2022-11-01T00:21:11.569Z,85.30
2022-11-01T00:24:13.193Z,85.60
2022-11-01T00:27:14.729Z,85.80
2022-11-01T00:30:16.644Z,86.30
2022-11-01T00:33:18.189Z,86.40
2022-11-01T00:36:19.734Z,86.60
2022-11-01T00:39:21.297Z,88.80
2022-11-01T00:42:22.997Z,87.80
2022-11-01T00:45:24.724Z,88.60
2022-11-01T00:48:26.667Z,88.20
2022-11-01T00:51:28.235Z,89.90
2022-11-01T00:54:29.774Z,89.40
2022-11-01T00:57:31.364Z,89.40
2022-11-01T01:00:33.090Z,89.20
2022-11-01T01:03:35.434Z,89.50
2022-11-01T01:06:37.100Z,89.80
2022-11-01T01:09:38.781Z,90.10
2022-11-01T01:12:40.347Z,89.70
2022-11-01T01:15:41.890Z,90.10
2022-11-01T01:18:43.473Z,89.70
2022-11-01T01:21:45.044Z,89.50
2022-11-01T01:24:47.582Z,90.00
2022-11-01T01:27:49.585Z,90.30
2022-11-01T01:30:51.171Z,89.70
2022-11-01T01:33:52.865Z,89.80
2022-11-01T01:36:54.389Z,89.70
2022-11-01T01:39:56.193Z,90.00
2022-11-01T01:42:57.812Z,89.90
2022-11-01T01:45:59.344Z,89.10
2022-11-01T01:49:01.071Z,89.00
2022-11-01T01:52:05.451Z,89.50
2022-11-01T01:55:10.079Z,90.00
2022-11-01T01:58:14.883Z,89.20
2022-11-01T02:01:16.694Z,89.30
2022-11-01T02:04:25.750Z,89.20
2022-11-01T02:07:27.295Z,89.90
2022-11-01T02:10:30.208Z,89.20
2022-11-01T02:13:32.152Z,89.20
2022-11-01T02:16:57.840Z,89.40
2022-11-01T02:20:02.425Z,87.90
2022-11-01T02:23:23.697Z,89.60
2022-11-01T02:26:46.934Z,89.80
2022-11-01T02:29:58.089Z,87.90
2022-11-01T02:33:15.673Z,88.10
2022-11-01T02:36:29.461Z,89.90
2022-11-01T02:40:08.377Z,89.80
2022-11-01T02:43:44.111Z,90.90
2022-11-01T02:47:01.870Z,91.00
2022-11-01T02:50:27.180Z,90.90
2022-11-01T02:53:37.082Z,90.80
2022-11-01T02:56:55.285Z,91.50
2022-11-01T03:04:52.597Z,90.40
2022-11-01T03:08:18.452Z,90.20
2022-11-01T03:12:06.414Z,89.90
2022-11-01T03:24:15.170Z,90.20
2022-11-01T03:28:27.254Z,90.30
2022-11-01T03:32:22.684Z,90.60
2022-11-01T03:35:51.481Z,90.20
2022-11-01T03:39:12.457Z,92.30
2022-11-01T03:42:33.875Z,92.00
2022-11-01T03:50:08.549Z,91.20
2022-11-01T03:57:29.579Z,92.30
2022-11-01T04:05:17.284Z,92.10
2022-11-01T04:08:52.816Z,90.20
2022-11-01T04:11:59.153Z,90.50
2022-11-01T04:20:12.550Z,90.80
2022-11-01T04:24:07.611Z,92.20
2022-11-01T04:27:51.075Z,92.10
2022-11-01T04:32:15.693Z,90.10
2022-11-01T04:39:35.765Z,90.80
2022-11-01T04:42:42.082Z,90.50
2022-11-01T04:46:12.096Z,92.90
2022-11-01T04:49:41.736Z,92.40
2022-11-01T04:52:57.566Z,92.80
2022-11-01T04:56:22.160Z,92.60
2022-11-01T04:59:26.676Z,92.70
2022-11-01T05:02:43.592Z,93.60
2022-11-01T05:05:48.587Z,94.20
2022-11-01T05:23:10.293Z,94.40
2022-11-01T05:26:19.619Z,93.80
2022-11-01T05:29:32.334Z,94.40
2022-11-01T05:33:04.633Z,91.10
2022-11-01T05:36:18.848Z,93.20
2022-11-01T05:39:53.389Z,92.80
2022-11-01T05:43:11.588Z,94.10
2022-11-01T05:47:20.082Z,93.00
2022-11-01T05:50:32.488Z,93.30
2022-11-01T05:53:39.491Z,91.80
2022-11-01T06:00:13.866Z,93.70
2022-11-01T06:03:56.887Z,92.40
2022-11-01T06:07:11.454Z,92.90
2022-11-01T06:18:07.139Z,91.00
2022-11-01T06:21:08.680Z,92.30
2022-11-01T06:24:13.805Z,91.20
2022-11-01T06:27:15.320Z,91.00
2022-11-01T06:30:17.389Z,91.00
2022-11-01T06:33:19.328Z,90.80
2022-11-01T06:36:22.458Z,91.00
2022-11-01T06:39:24.214Z,90.90
2022-11-01T06:42:25.750Z,91.30
2022-11-01T06:45:27.321Z,90.90
2022-11-01T06:48:29.182Z,91.00
2022-11-01T06:51:30.793Z,91.00
2022-11-01T06:54:33.353Z,91.00
2022-11-01T06:57:35.010Z,90.90
2022-11-01T07:00:36.699Z,90.30
2022-11-01T07:03:38.251Z,90.50
2022-11-01T07:06:40.095Z,90.20
2022-11-01T07:09:41.644Z,89.50
2022-11-01T07:12:43.212Z,90.10
2022-11-01T07:15:44.765Z,90.10
2022-11-01T07:18:46.627Z,90.20
2022-11-01T07:21:48.138Z,89.80
2022-11-01T07:24:49.679Z,90.30
2022-11-01T07:27:51.255Z,90.30
2022-11-01T07:30:54.184Z,90.20
2022-11-01T07:33:55.738Z,90.30
2022-11-01T07:36:57.269Z,90.70
2022-11-01T07:39:58.795Z,90.30
2022-11-01T07:43:01.289Z,90.40
2022-11-01T07:46:06.977Z,90.30
2022-11-01T07:49:08.650Z,89.60
2022-11-01T07:52:10.209Z,90.40
2022-11-01T07:55:11.838Z,90.40
2022-11-01T07:58:14.464Z,90.30
2022-11-01T08:01:16.147Z,90.30
2022-11-01T08:04:17.793Z,90.30
2022-11-01T08:07:19.319Z,90.30
2022-11-01T08:10:21.208Z,90.40
2022-11-01T08:13:24.514Z,90.10
2022-11-01T08:16:26.033Z,90.30
2022-11-01T08:19:27.681Z,90.20
2022-11-01T08:22:29.351Z,90.30
2022-11-01T08:25:31.360Z,90.10
2022-11-01T08:28:33.146Z,90.10
2022-11-01T08:31:34.906Z,90.00
2022-11-01T08:34:36.440Z,89.80
2022-11-01T08:37:47.244Z,90.00
2022-11-01T08:40:48.796Z,89.60
2022-11-01T08:43:50.355Z,89.30
2022-11-01T08:46:54.280Z,89.40
2022-11-01T08:49:55.868Z,88.80
2022-11-01T08:52:57.618Z,88.60
2022-11-01T08:55:59.233Z,88.60
2022-11-01T08:59:01.148Z,89.30
2022-11-01T09:02:02.840Z,88.20
2022-11-01T09:05:06.664Z,88.20
2022-11-01T09:08:08.328Z,87.50
2022-11-01T09:11:09.947Z,87.60
2022-11-01T09:14:11.474Z,87.20
2022-11-01T09:17:13.016Z,87.30
2022-11-01T09:20:15.241Z,87.60
2022-11-01T09:23:16.759Z,87.20
2022-11-01T09:26:18.772Z,87.80
2022-11-01T09:29:21.287Z,86.60
2022-11-01T09:32:22.911Z,87.30
2022-11-01T09:35:24.631Z,86.70
2022-11-01T09:38:27.278Z,87.50
2022-11-01T09:41:38.929Z,86.30
2022-11-01T09:44:44.332Z,86.20
2022-11-01T09:47:51.245Z,86.00
2022-11-01T09:50:53.865Z,85.80
2022-11-01T09:53:57.870Z,85.60
2022-11-01T09:56:59.393Z,86.50
2022-11-01T10:00:13.607Z,85.60
2022-11-01T10:03:34.316Z,83.70
2022-11-01T10:06:43.752Z,85.30
2022-11-01T10:10:22.701Z,90.90
2022-11-01T10:13:58.475Z,83.90
2022-11-01T10:17:14.971Z,83.80
2022-11-01T10:20:17.512Z,83.30
2022-11-01T10:23:29.447Z,85.20
2022-11-01T10:26:31.227Z,84.90
2022-11-01T10:29:40.696Z,84.90
2022-11-01T10:33:06.508Z,84.70
2022-11-01T10:36:19.657Z,82.70
2022-11-01T10:42:58.137Z,84.40
2022-11-01T10:46:10.472Z,84.40
2022-11-01T10:49:46.237Z,84.50
2022-11-01T10:53:12.827Z,82.70
2022-11-01T10:56:25.706Z,82.40
2022-11-01T10:59:44.984Z,85.70
2022-11-01T11:03:05.151Z,82.70
2022-11-01T11:13:49.814Z,87.40
2022-11-01T11:20:40.695Z,85.20
2022-11-01T11:23:46.703Z,84.40
2022-11-01T11:26:55.001Z,84.20
2022-11-01T11:30:00.167Z,83.50
2022-11-01T11:33:03.679Z,83.00
2022-11-01T11:36:07.673Z,84.80
2022-11-01T11:39:23.738Z,82.80
2022-11-01T11:42:30.213Z,84.30
2022-11-01T11:45:37.455Z,82.40
2022-11-01T11:49:01.695Z,81.00
2022-11-01T11:52:04.923Z,81.20
2022-11-01T11:55:26.231Z,84.00
2022-11-01T11:58:49.039Z,82.60
2022-11-01T12:02:03.925Z,84.30
2022-11-01T12:05:29.042Z,80.00
2022-11-01T12:08:47.464Z,83.20
2022-11-01T12:11:51.103Z,81.20
2022-11-01T12:14:55.145Z,84.40
2022-11-01T12:18:16.370Z,84.10
2022-11-01T12:21:33.782Z,80.70
2022-11-01T12:24:57.296Z,82.90
2022-11-01T12:28:22.312Z,80.60
2022-11-01T12:31:31.062Z,80.90
2022-11-01T12:34:39.831Z,85.50
2022-11-01T12:38:05.287Z,84.10
2022-11-01T12:41:21.694Z,80.30
2022-11-01T12:44:47.498Z,81.80
2022-11-01T12:47:55.250Z,80.20
2022-11-01T12:50:59.905Z,81.50
2022-11-01T12:54:23.006Z,82.10
2022-11-01T12:57:24.730Z,79.80
2022-11-01T13:00:43.324Z,82.00
2022-11-01T13:03:54.139Z,80.00
2022-11-01T13:07:10.536Z,81.60
2022-11-01T13:10:22.700Z,80.00
2022-11-01T13:13:56.415Z,83.00
2022-11-01T13:17:14.800Z,80.00
2022-11-01T13:20:35.254Z,80.50
2022-11-01T13:23:38.762Z,82.10
2022-11-01T13:26:50.525Z,83.60
2022-11-01T13:30:13.446Z,81.90
2022-11-01T13:33:42.507Z,83.80
2022-11-01T13:36:59.885Z,80.20
2022-11-01T13:40:17.230Z,82.00
2022-11-01T13:43:22.699Z,80.10
2022-11-01T13:46:50.667Z,81.60
2022-11-01T13:50:20.229Z,80.00
2022-11-01T13:54:13.100Z,79.80
2022-11-01T13:57:18.434Z,80.10
2022-11-01T14:00:38.739Z,81.70
2022-11-01T14:03:40.350Z,79.70
2022-11-01T14:06:43.886Z,81.70
2022-11-01T14:09:47.989Z,83.20
2022-11-01T14:13:08.056Z,81.80
2022-11-01T14:16:15.555Z,81.90
2022-11-01T14:19:21.181Z,81.90
2022-11-01T14:22:24.070Z,81.80
2022-11-01T14:25:33.009Z,81.90
2022-11-01T14:28:41.687Z,81.80
2022-11-01T14:31:45.859Z,82.00
2022-11-01T14:35:04.879Z,81.80
2022-11-01T14:38:20.062Z,79.90
2022-11-01T14:41:25.176Z,82.80
2022-11-01T14:44:36.958Z,81.90
2022-11-01T14:47:40.942Z,81.90
2022-11-01T14:50:55.585Z,81.80
2022-11-01T14:54:20.947Z,80.20
2022-11-01T14:57:31.015Z,82.00
2022-11-01T15:00:32.581Z,82.10
2022-11-01T15:03:34.550Z,82.00
2022-11-01T15:06:42.121Z,82.20
2022-11-01T15:10:05.698Z,81.90
2022-11-01T15:13:07.260Z,82.10
2022-11-01T15:16:17.255Z,81.70
2022-11-01T15:19:28.323Z,82.10
2022-11-01T15:22:33.719Z,82.10
2022-11-01T15:25:36.219Z,82.20
2022-11-01T15:28:44.451Z,82.00
2022-11-01T15:31:57.186Z,82.20
2022-11-01T15:35:05.950Z,82.30
2022-11-01T15:38:20.805Z,80.50
2022-11-01T15:41:27.396Z,82.50
2022-11-01T15:44:30.462Z,82.50
2022-11-01T15:47:32.046Z,82.60
2022-11-01T15:50:40.361Z,82.70
2022-11-01T15:53:42.989Z,81.20
2022-11-01T15:56:53.004Z,82.50
2022-11-01T16:00:18.348Z,82.80
2022-11-01T16:03:24.700Z,81.90
2022-11-01T16:06:33.829Z,82.50
2022-11-01T16:09:50.561Z,82.30
2022-11-01T16:12:53.561Z,80.70
2022-11-01T16:16:04.576Z,83.60
2022-11-01T16:19:39.837Z,82.60
2022-11-01T16:22:41.369Z,81.00
2022-11-01T16:25:42.969Z,82.50
2022-11-01T16:28:46.253Z,82.60
2022-11-01T16:32:09.518Z,82.80
2022-11-01T16:35:35.347Z,82.80
2022-11-01T16:38:41.128Z,81.60
2022-11-01T16:41:43.206Z,83.00
2022-11-01T16:44:46.148Z,82.90
2022-11-01T16:47:48.401Z,83.20
2022-11-01T16:50:52.371Z,83.30
2022-11-01T16:54:01.243Z,83.10
2022-11-01T16:57:03.526Z,84.40
2022-11-01T17:00:16.626Z,83.30
2022-11-01T17:03:18.197Z,81.80
2022-11-01T17:06:20.334Z,83.10
2022-11-01T17:09:25.043Z,83.10
2022-11-01T17:12:26.798Z,82.40
2022-11-01T17:15:29.169Z,83.50
2022-11-01T17:18:35.275Z,83.30
2022-11-01T17:21:38.550Z,83.20
2022-11-01T17:24:44.212Z,83.70
2022-11-01T17:31:12.672Z,87.90
2022-11-01T17:34:20.146Z,86.40
2022-11-01T17:37:26.739Z,86.30
2022-11-01T17:52:29.667Z,83.00
2022-11-01T17:56:14.526Z,88.30
2022-11-01T17:59:18.138Z,84.70
2022-11-01T18:06:24.349Z,81.40
2022-11-01T18:09:25.952Z,87.10
2022-11-01T18:12:36.483Z,83.70
2022-11-01T18:15:51.521Z,83.90
2022-11-01T18:19:06.529Z,84.10
2022-11-01T18:22:38.146Z,82.30
2022-11-01T18:25:47.156Z,82.50
2022-11-01T18:28:49.934Z,84.30
2022-11-01T18:32:19.980Z,84.30
2022-11-01T18:35:32.823Z,82.80
2022-11-01T18:38:55.899Z,83.00
2022-11-01T18:42:00.671Z,84.80
2022-11-01T18:45:18.473Z,84.50
2022-11-01T18:48:23.264Z,83.00
2022-11-01T18:51:28.729Z,84.60
2022-11-01T18:54:32.891Z,84.70
2022-11-01T18:57:34.931Z,84.80
2022-11-01T19:00:37.637Z,86.00
2022-11-01T19:03:39.403Z,85.10
2022-11-01T19:06:40.972Z,84.90
2022-11-01T19:09:56.856Z,84.90
2022-11-01T19:12:58.461Z,85.00
2022-11-01T19:16:01.812Z,86.20
2022-11-01T19:19:13.518Z,85.10
2022-11-01T19:22:45.554Z,86.20
2022-11-01T19:25:48.897Z,85.60
2022-11-01T19:28:52.582Z,85.30
2022-11-01T19:31:58.004Z,85.30
2022-11-01T19:35:00.397Z,85.50
2022-11-01T19:38:02.371Z,85.80
2022-11-01T19:41:05.070Z,86.60
2022-11-01T19:44:14.344Z,85.70
2022-11-01T19:47:40.970Z,86.10
2022-11-01T19:50:46.659Z,84.80
2022-11-01T19:53:49.730Z,86.00
2022-11-01T19:56:51.438Z,86.10
2022-11-01T19:59:53.900Z,86.10
2022-11-01T20:02:59.361Z,85.80
2022-11-01T20:06:00.997Z,86.20
2022-11-01T20:09:27.742Z,85.90
2022-11-01T20:12:29.273Z,86.30
2022-11-01T20:15:30.911Z,86.30
2022-11-01T20:18:32.539Z,87.50
2022-11-01T20:21:34.137Z,87.80
2022-11-01T20:24:35.743Z,86.50
2022-11-01T20:27:37.270Z,86.30
2022-11-01T20:30:38.812Z,86.40
2022-11-01T20:33:40.918Z,86.50
2022-11-01T20:37:08.215Z,86.60
2022-11-01T20:40:10.326Z,85.60
2022-11-01T20:43:14.981Z,86.00
2022-11-01T20:46:16.711Z,85.80
2022-11-01T20:49:18.380Z,86.30
2022-11-01T20:52:38.501Z,86.70
2022-11-01T20:55:42.689Z,86.40
2022-11-01T20:58:44.489Z,86.90
2022-11-01T21:01:46.369Z,86.90
2022-11-01T21:04:54.995Z,87.90
2022-11-01T21:08:00.888Z,87.20
2022-11-01T21:11:04.310Z,87.10
2022-11-01T21:14:15.796Z,87.40
2022-11-01T21:17:18.771Z,85.60
2022-11-01T21:20:25.318Z,87.20
2022-11-01T21:23:35.413Z,87.30
2022-11-01T21:26:39.942Z,87.10
2022-11-01T21:29:44.729Z,87.00
2022-11-01T21:32:47.199Z,86.90
2022-11-01T21:35:53.350Z,86.90
2022-11-01T21:39:00.054Z,86.60
2022-11-01T21:42:24.058Z,87.00
2022-11-01T21:45:31.453Z,87.00
2022-11-01T21:48:33.320Z,87.40
2022-11-01T21:51:34.990Z,87.10
2022-11-01T21:54:38.537Z,87.10
2022-11-01T21:57:40.087Z,87.90
2022-11-01T22:00:41.710Z,87.70
2022-11-01T22:03:43.235Z,87.20
2022-11-01T22:06:45.473Z,88.10
2022-11-01T22:09:47.010Z,87.00
2022-11-01T22:12:48.562Z,88.00
2022-11-01T22:15:50.109Z,87.60
2022-11-01T22:18:51.776Z,87.60
2022-11-01T22:21:53.521Z,87.80
2022-11-01T22:24:55.159Z,87.70
2022-11-01T22:27:56.677Z,88.10
2022-11-01T22:31:02.252Z,87.60
2022-11-01T22:34:03.838Z,87.00
2022-11-01T22:37:12.851Z,87.10
2022-11-01T22:40:15.263Z,87.50
2022-11-01T22:43:18.654Z,86.70
2022-11-01T22:46:25.483Z,87.00
2022-11-01T22:49:34.051Z,87.00
2022-11-01T22:52:39.019Z,88.60
2022-11-01T22:55:44.301Z,87.80
2022-11-01T22:58:46.011Z,87.80
2022-11-01T23:01:47.905Z,87.20
2022-11-01T23:04:49.701Z,87.30
2022-11-01T23:07:54.203Z,87.50
2022-11-01T23:10:56.666Z,87.60
2022-11-01T23:14:16.628Z,87.30
2022-11-01T23:17:20.163Z,86.60
2022-11-01T23:20:21.706Z,87.40
2022-11-01T23:23:24.287Z,87.70
2022-11-01T23:26:25.854Z,87.70
2022-11-01T23:29:27.379Z,88.10
2022-11-01T23:32:30.490Z,88.20
2022-11-01T23:35:32.040Z,88.00
2022-11-01T23:38:39.224Z,88.00
2022-11-01T23:41:49.929Z,88.10
2022-11-01T23:44:53.470Z,88.20
2022-11-01T23:47:55.631Z,88.20
2022-11-01T23:50:57.882Z,87.80
2022-11-01T23:53:59.827Z,87.90
2022-11-01T23:57:01.690Z,88.30
